Time;durP1;ratioP1;P1;durP2;ratioP2;P2;SDS_P1;SDS_P2;PMS_P1;PMS_P2;Temp;Humidity;BMP_temperature;BMP_pressure;BME280_temperature;BME280_humidity;BME280_pressure;Samples;Min_cycle;Max_cycle;Signal;HPM_P1;HPM_P2
2021/12/04 00:00:23;;;;;;;;;;;4.20;99.90;;;;;;5022231;28;20019;-63
2021/12/04 00:02:53;;;;;;;;;;;4.20;99.90;;;;;;5022836;28;20373;-63
2021/12/04 00:05:19;;;;;;;;;;;4.20;99.90;;;;;;5006009;28;20004;-62
2021/12/04 00:07:44;;;;;;;;;;;4.20;99.70;;;;;;5024771;28;19913;-62
2021/12/04 00:10:16;;;;;;;;;;;4.20;99.80;;;;;;5021862;28;19931;-62
2021/12/04 00:12:41;;;;;;;;;;;4.20;99.80;;;;;;5023388;28;19913;-62
2021/12/04 00:15:07;;;;;;;;;;;4.30;99.80;;;;;;5025559;28;19970;-62
2021/12/04 00:17:32;;;;;;;;;;;4.20;99.90;;;;;;5025758;28;19919;-62
2021/12/04 00:19:58;;;;;;;;;;;4.20;99.80;;;;;;5023409;28;20382;-62
2021/12/04 00:22:23;;;;;;;;;;;4.20;99.80;;;;;;5024332;28;19909;-62
2021/12/04 00:24:49;;;;;;;;;;;4.30;99.90;;;;;;5027266;28;20431;-62
2021/12/04 00:27:14;;;;;;;;;;;4.30;99.70;;;;;;5004495;28;19989;-62
2021/12/04 00:29:40;;;;;;;;;;;4.20;99.80;;;;;;5023711;28;20362;-62
2021/12/04 00:32:54;;;;;;;;;;;4.20;99.80;;;;;;5025855;28;19916;-62
2021/12/04 00:35:17;;;;;;;;;;;4.20;99.90;;;;;;5020112;28;19947;-62
2021/12/04 00:43:21;;;;;;;;;;;4.30;99.90;;;;;;5025853;28;19940;-62
2021/12/04 00:51:15;;;;;;;;;;;4.30;99.90;;;;;;5024595;28;19932;-62
2021/12/04 00:53:40;;;;;;;;;;;4.30;99.90;;;;;;5023926;28;20293;-62
2021/12/04 00:56:06;;;;;;;;;;;4.20;99.90;;;;;;5025740;28;19914;-62
2021/12/04 00:58:31;;;;;;;;;;;4.30;99.90;;;;;;5023814;28;20337;-62
2021/12/04 01:00:57;;;;;;;;;;;4.30;99.90;;;;;;5020055;28;20515;-62
2021/12/04 01:03:22;;;;;;;;;;;4.30;99.90;;;;;;5018098;28;19964;-62
2021/12/04 01:05:48;;;;;;;;;;;4.30;99.90;;;;;;5018493;28;20195;-62
2021/12/04 01:08:13;;;;;;;;;;;4.30;99.90;;;;;;5023420;28;19914;-62
2021/12/04 01:10:39;;;;;;;;;;;4.30;99.90;;;;;;5022028;28;19913;-62
2021/12/04 01:13:10;;;;;;;;;;;4.30;99.90;;;;;;5023826;28;19940;-62
2021/12/04 01:15:36;;;;;;;;;;;4.30;99.90;;;;;;5023867;28;19910;-62
2021/12/04 01:18:02;;;;;;;;;;;4.30;99.90;;;;;;5025338;28;20308;-62
2021/12/04 01:20:27;;;;;;;;;;;4.30;99.90;;;;;;5019332;28;19909;-62
2021/12/04 01:22:53;;;;;;;;;;;4.30;99.90;;;;;;5022853;28;20281;-62
2021/12/04 01:25:18;;;;;;;;;;;4.30;99.90;;;;;;5023370;28;19913;-62
2021/12/04 01:27:46;;;;;;;;;;;4.30;99.90;;;;;;5022708;28;19921;-62
2021/12/04 01:30:11;;;;;;;;;;;4.30;99.90;;;;;;5024687;28;19917;-62
2021/12/04 01:32:37;;;;;;;;;;;4.30;99.90;;;;;;5022355;28;19967;-62
2021/12/04 01:35:02;;;;;;;;;;;4.30;99.90;;;;;;5020754;28;19913;-62
2021/12/04 01:37:28;;;;;;;;;;;4.30;99.90;;;;;;5022787;28;19960;-62
2021/12/04 01:39:53;;;;;;;;;;;4.30;99.90;;;;;;5024797;28;20420;-62
2021/12/04 01:42:20;;;;;;;;;;;4.30;99.90;;;;;;5006015;28;20354;-62
2021/12/04 01:44:47;;;;;;;;;;;4.30;99.90;;;;;;5018129;28;20021;-62
2021/12/04 01:47:14;;;;;;;;;;;4.30;99.90;;;;;;5023138;28;20425;-62
2021/12/04 01:49:39;;;;;;;;;;;4.30;99.90;;;;;;5024248;28;20523;-62
2021/12/04 01:52:06;;;;;;;;;;;4.40;99.90;;;;;;5025595;28;19913;-62
2021/12/04 01:54:31;;;;;;;;;;;4.30;99.90;;;;;;5027257;28;19955;-62
2021/12/04 01:56:57;;;;;;;;;;;4.30;99.90;;;;;;5026633;28;19921;-62
2021/12/04 01:59:22;;;;;;;;;;;4.30;99.90;;;;;;5042251;23;19947;-68
2021/12/04 02:01:48;;;;;;;;;;;4.30;99.90;;;;;;5026069;28;19920;-67
2021/12/04 02:04:13;;;;;;;;;;;4.30;99.90;;;;;;5028657;28;19956;-67
2021/12/04 02:06:38;;;;;;;;;;;4.30;99.90;;;;;;5028924;28;19914;-67
2021/12/04 02:09:04;;;;;;;;;;;4.30;99.90;;;;;;5025693;28;19928;-67
2021/12/04 02:11:29;;;;;;;;;;;4.30;99.90;;;;;;5028981;28;20002;-68
2021/12/04 02:13:55;;;;;;;;;;;4.30;99.90;;;;;;5027909;28;19924;-67
2021/12/04 02:16:21;;;;;;;;;;;4.30;99.90;;;;;;5024492;28;20295;-67
2021/12/04 02:18:46;;;;;;;;;;;4.30;99.90;;;;;;5029293;28;19916;-68
2021/12/04 02:21:12;;;;;;;;;;;4.30;99.90;;;;;;5028295;28;20445;-67
2021/12/04 02:23:38;;;;;;;;;;;4.30;99.90;;;;;;5025154;28;19928;-68
2021/12/04 02:26:04;;;;;;;;;;;4.30;99.90;;;;;;5029971;28;19928;-68
2021/12/04 02:28:29;;;;;;;;;;;4.30;99.90;;;;;;5028506;28;20040;-67
2021/12/04 02:30:55;;;;;;;;;;;4.30;99.90;;;;;;5025514;28;19913;-67
2021/12/04 02:33:21;;;;;;;;;;;4.30;99.90;;;;;;5027667;28;20308;-67
2021/12/04 02:35:51;;;;;;;;;;;4.30;99.90;;;;;;5029111;28;19921;-68
2021/12/04 02:38:17;;;;;;;;;;;4.20;99.90;;;;;;5028973;28;19913;-67
2021/12/04 02:40:44;;;;;;;;;;;4.20;99.90;;;;;;5009911;28;20391;-67
2021/12/04 02:43:10;;;;;;;;;;;4.20;99.90;;;;;;5010869;28;19917;-68
2021/12/04 02:45:35;;;;;;;;;;;4.20;99.90;;;;;;5026427;28;20383;-67
2021/12/04 02:48:01;;;;;;;;;;;4.10;99.90;;;;;;5027640;28;19920;-68
2021/12/04 02:50:26;;;;;;;;;;;4.10;99.90;;;;;;5000208;28;20016;-68
2021/12/04 02:52:52;;;;;;;;;;;4.20;99.90;;;;;;5008913;28;19924;-68
2021/12/04 02:55:18;;;;;;;;;;;4.10;99.90;;;;;;5012019;28;20307;-67
2021/12/04 02:57:46;;;;;;;;;;;4.10;99.90;;;;;;5026253;28;19920;-67
2021/12/04 03:00:16;;;;;;;;;;;4.10;99.90;;;;;;5024220;28;19917;-67
2021/12/04 03:02:42;;;;;;;;;;;4.10;99.90;;;;;;5022127;28;19913;-67
2021/12/04 03:05:09;;;;;;;;;;;4.10;99.90;;;;;;5024841;28;20160;-68
2021/12/04 03:07:35;;;;;;;;;;;4.10;99.90;;;;;;5024708;28;19921;-68
2021/12/04 03:10:00;;;;;;;;;;;4.10;99.90;;;;;;5009410;28;20017;-67
2021/12/04 03:12:26;;;;;;;;;;;4.10;99.90;;;;;;5026222;28;19917;-68
2021/12/04 03:14:52;;;;;;;;;;;4.10;99.90;;;;;;5030001;28;20266;-67
2021/12/04 03:17:20;;;;;;;;;;;4.10;99.90;;;;;;5026831;28;19917;-67
2021/12/04 03:19:46;;;;;;;;;;;4.10;99.90;;;;;;5026487;28;19921;-67
2021/12/04 03:22:12;;;;;;;;;;;4.10;99.90;;;;;;5025732;28;19943;-67
2021/12/04 03:24:41;;;;;;;;;;;4.10;99.90;;;;;;5027198;28;19913;-67
2021/12/04 03:27:06;;;;;;;;;;;4.20;99.90;;;;;;5028646;28;19971;-68
2021/12/04 03:29:35;;;;;;;;;;;4.10;99.90;;;;;;5022861;28;19914;-68
2021/12/04 03:43:05;;;;;;;;;;;4.10;99.90;;;;;;5029884;28;19917;-68
2021/12/04 03:45:33;;;;;;;;;;;4.20;99.90;;;;;;5027000;28;19992;-67
2021/12/04 03:48:06;;;;;;;;;;;4.10;99.90;;;;;;5005908;28;19920;-68
2021/12/04 03:50:32;;;;;;;;;;;4.10;99.90;;;;;;5026945;28;19920;-67
2021/12/04 03:52:57;;;;;;;;;;;4.10;99.90;;;;;;5023978;28;19917;-67
2021/12/04 03:55:25;;;;;;;;;;;4.10;99.90;;;;;;5028248;28;19909;-67
2021/12/04 03:57:50;;;;;;;;;;;4.10;99.90;;;;;;5025965;28;20000;-67
2021/12/04 04:00:18;;;;;;;;;;;4.10;99.90;;;;;;5023369;28;20011;-68
2021/12/04 04:02:43;;;;;;;;;;;4.10;99.90;;;;;;5024826;28;19939;-67
2021/12/04 04:05:09;;;;;;;;;;;4.10;99.90;;;;;;5028884;28;19920;-67
2021/12/04 04:07:34;;;;;;;;;;;4.10;99.90;;;;;;5023547;28;19917;-68
2021/12/04 04:10:00;;;;;;;;;;;4.10;99.90;;;;;;5023175;28;19951;-68
2021/12/04 04:12:25;;;;;;;;;;;4.10;99.90;;;;;;5009010;28;20355;-67
2021/12/04 04:14:51;;;;;;;;;;;4.10;99.90;;;;;;5009684;28;19913;-68
2021/12/04 04:17:16;;;;;;;;;;;4.10;99.90;;;;;;5027347;28;20417;-68
2021/12/04 04:19:42;;;;;;;;;;;4.10;99.90;;;;;;5024599;28;20432;-68
2021/12/04 04:22:08;;;;;;;;;;;4.10;99.90;;;;;;5025564;28;19920;-68
2021/12/04 04:24:34;;;;;;;;;;;4.10;99.90;;;;;;5024967;28;19913;-68
2021/12/04 04:26:59;;;;;;;;;;;4.10;99.90;;;;;;5003303;28;19959;-68
2021/12/04 04:29:25;;;;;;;;;;;4.10;99.90;;;;;;5026948;28;19961;-68
2021/12/04 04:31:53;;;;;;;;;;;4.10;99.90;;;;;;5028389;28;19917;-68
2021/12/04 04:34:28;;;;;;;;;;;4.10;99.90;;;;;;5027293;28;19923;-68
2021/12/04 04:58:42;;;;;;;;;;;3.90;99.90;;;;;;5020764;28;20006;-67
2021/12/04 05:14:34;;;;;;;;;;;4.00;99.90;;;;;;5024989;28;19960;-68
2021/12/04 05:17:06;;;;;;;;;;;4.10;99.90;;;;;;5022195;28;19921;-67
2021/12/04 05:19:52;;;;;;;;;;;4.10;99.90;;;;;;5023323;28;19913;-68
2021/12/04 05:22:17;;;;;;;;;;;4.10;99.90;;;;;;5027547;28;20375;-67
2021/12/04 05:24:43;;;;;;;;;;;4.10;99.90;;;;;;5027466;28;19921;-68
2021/12/04 05:27:09;;;;;;;;;;;4.10;99.90;;;;;;5028991;28;19917;-68
2021/12/04 05:29:34;;;;;;;;;;;4.10;99.90;;;;;;5010649;28;20599;-68
2021/12/04 05:32:00;;;;;;;;;;;4.10;99.90;;;;;;5010006;28;19917;-68
2021/12/04 05:34:26;;;;;;;;;;;4.10;99.90;;;;;;5028272;28;19913;-68
2021/12/04 05:36:51;;;;;;;;;;;4.10;99.90;;;;;;5012860;28;20380;-67
2021/12/04 05:39:17;;;;;;;;;;;4.10;99.90;;;;;;5028538;28;19921;-67
2021/12/04 05:41:42;;;;;;;;;;;4.10;99.90;;;;;;5027884;28;20399;-67
2021/12/04 05:44:09;;;;;;;;;;;4.10;99.90;;;;;;5030137;28;19909;-67
2021/12/04 05:46:53;;;;;;;;;;;4.00;99.90;;;;;;5030468;28;19931;-67
2021/12/04 05:49:24;;;;;;;;;;;4.00;99.90;;;;;;5024408;28;19919;-67
2021/12/04 05:56:46;;;;;;;;;;;3.90;99.90;;;;;;5028583;28;19924;-68
2021/12/04 05:59:11;;;;;;;;;;;4.00;99.90;;;;;;5029423;28;19929;-67
2021/12/04 06:01:37;;;;;;;;;;;4.00;99.90;;;;;;5027882;28;20020;-67
2021/12/04 06:04:02;;;;;;;;;;;4.10;99.90;;;;;;5028012;28;19921;-68
2021/12/04 06:06:28;;;;;;;;;;;4.10;99.90;;;;;;5029304;28;19917;-68
2021/12/04 06:08:54;;;;;;;;;;;4.10;99.90;;;;;;5025054;28;19920;-68
2021/12/04 06:11:19;;;;;;;;;;;4.10;99.90;;;;;;5026988;28;19913;-68
2021/12/04 06:13:45;;;;;;;;;;;4.10;99.90;;;;;;5028067;28;20368;-68
2021/12/04 06:16:11;;;;;;;;;;;4.10;99.90;;;;;;5027133;28;20003;-68
2021/12/04 06:18:36;;;;;;;;;;;4.10;99.90;;;;;;5029910;28;19913;-68
2021/12/04 06:23:46;;;;;;;;;;;4.20;99.90;;;;;;5025711;28;19960;-67
2021/12/04 06:26:12;;;;;;;;;;;4.10;99.90;;;;;;5022886;28;20339;-67
2021/12/04 06:28:37;;;;;;;;;;;4.20;99.90;;;;;;5031286;28;19909;-68
2021/12/04 06:31:03;;;;;;;;;;;4.20;99.90;;;;;;5028036;28;19920;-68
2021/12/04 06:33:29;;;;;;;;;;;4.20;99.90;;;;;;5013290;28;19920;-68
2021/12/04 06:35:54;;;;;;;;;;;4.20;99.90;;;;;;5025299;28;19910;-66
2021/12/04 06:38:20;;;;;;;;;;;4.30;99.90;;;;;;5029040;28;19913;-65
2021/12/04 06:40:46;;;;;;;;;;;4.20;99.90;;;;;;5000145;28;19909;-66
2021/12/04 06:43:12;;;;;;;;;;;4.30;99.90;;;;;;5029126;28;19971;-66
2021/12/04 06:45:39;;;;;;;;;;;4.20;99.90;;;;;;5026570;28;20303;-66
2021/12/04 06:48:08;;;;;;;;;;;4.30;99.90;;;;;;5027378;28;19947;-66
2021/12/04 06:53:12;;;;;;;;;;;4.30;99.90;;;;;;5027535;28;19924;-66
2021/12/04 06:55:41;;;;;;;;;;;4.30;99.90;;;;;;5028023;28;20003;-66
2021/12/04 06:58:06;;;;;;;;;;;4.30;99.90;;;;;;5023862;28;19913;-66
2021/12/04 07:00:33;;;;;;;;;;;4.30;99.90;;;;;;5025149;28;19925;-66
2021/12/04 07:02:58;;;;;;;;;;;4.30;99.90;;;;;;5027189;28;19913;-65
2021/12/04 07:05:23;;;;;;;;;;;4.30;99.90;;;;;;5021393;28;19921;-67
2021/12/04 07:07:49;;;;;;;;;;;4.40;99.90;;;;;;5029707;28;19909;-67
2021/12/04 07:10:14;;;;;;;;;;;4.40;99.90;;;;;;5026274;28;19929;-67
2021/12/04 07:12:40;;;;;;;;;;;4.40;99.90;;;;;;5028032;28;19917;-67
2021/12/04 07:15:06;;;;;;;;;;;4.40;99.90;;;;;;5010437;28;19917;-67
2021/12/04 07:17:35;;;;;;;;;;;4.40;99.90;;;;;;5029853;28;20280;-67
2021/12/04 07:20:01;;;;;;;;;;;4.40;99.90;;;;;;5023330;28;19917;-67
2021/12/04 07:22:26;;;;;;;;;;;4.40;99.90;;;;;;5027111;28;20436;-67
2021/12/04 07:24:52;;;;;;;;;;;4.40;99.90;;;;;;5025872;28;20363;-67
2021/12/04 07:27:17;;;;;;;;;;;4.40;99.90;;;;;;5029720;28;20307;-67
2021/12/04 07:29:43;;;;;;;;;;;4.40;99.90;;;;;;5025108;28;19924;-67
2021/12/04 07:32:08;;;;;;;;;;;4.40;99.90;;;;;;5011822;28;19913;-67
2021/12/04 07:34:34;;;;;;;;;;;4.40;99.90;;;;;;5026989;28;19928;-69
2021/12/04 07:36:59;;;;;;;;;;;4.40;99.90;;;;;;5008089;28;19935;-69
2021/12/04 07:39:25;;;;;;;;;;;4.40;99.90;;;;;;5005242;28;20295;-69
2021/12/04 07:41:50;;;;;;;;;;;4.40;99.90;;;;;;5019756;28;19913;-68
2021/12/04 07:44:16;;;;;;;;;;;4.40;99.90;;;;;;5029405;28;19909;-70
2021/12/04 07:46:41;;;;;;;;;;;4.50;99.90;;;;;;5018760;28;19961;-69
2021/12/04 07:49:07;;;;;;;;;;;4.50;99.90;;;;;;5023175;28;20012;-68
2021/12/04 07:51:32;;;;;;;;;;;4.50;99.90;;;;;;5024904;28;20012;-69
2021/12/04 07:53:58;;;;;;;;;;;4.50;99.90;;;;;;5024024;28;19920;-69
2021/12/04 07:56:24;;;;;;;;;;;4.50;99.90;;;;;;5025585;28;19979;-66
2021/12/04 07:58:50;;;;;;;;;;;4.60;99.90;;;;;;5023040;28;19917;-65
2021/12/04 08:01:15;;;;;;;;;;;5.10;99.90;;;;;;5024718;28;19917;-66
2021/12/04 08:03:41;;;;;;;;;;;6.10;99.90;;;;;;5024862;28;20071;-67
2021/12/04 08:06:06;;;;;;;;;;;6.20;99.90;;;;;;5026011;28;20372;-66
2021/12/04 08:08:32;;;;;;;;;;;5.90;99.90;;;;;;4998546;28;19936;-66
2021/12/04 08:10:58;;;;;;;;;;;5.60;99.90;;;;;;5023145;28;19917;-67
2021/12/04 08:13:23;;;;;;;;;;;5.40;99.90;;;;;;5025212;28;20004;-66
2021/12/04 08:15:49;;;;;;;;;;;5.20;99.90;;;;;;5024756;28;20408;-67
2021/12/04 08:18:17;;;;;;;;;;;5.10;99.90;;;;;;5023414;28;20288;-66
2021/12/04 08:20:46;;;;;;;;;;;5.00;99.90;;;;;;5006073;28;19917;-66
2021/12/04 08:23:11;;;;;;;;;;;4.90;99.90;;;;;;5021409;28;20281;-66
2021/12/04 08:25:38;;;;;;;;;;;4.90;99.90;;;;;;5019239;28;19928;-66
2021/12/04 08:28:09;;;;;;;;;;;4.80;99.90;;;;;;5021025;28;19920;-66
2021/12/04 08:30:39;;;;;;;;;;;4.80;99.90;;;;;;5011601;28;19987;-66
2021/12/04 08:33:13;;;;;;;;;;;4.80;99.90;;;;;;5020066;28;20008;-65
2021/12/04 08:35:40;;;;;;;;;;;4.80;99.90;;;;;;5024977;28;20280;-65
2021/12/04 08:38:06;;;;;;;;;;;4.80;99.90;;;;;;5003629;28;20033;-65
2021/12/04 08:40:32;;;;;;;;;;;4.80;99.90;;;;;;5006812;28;20253;-65
2021/12/04 08:42:58;;;;;;;;;;;4.80;99.90;;;;;;5026141;28;19920;-66
2021/12/04 08:45:26;;;;;;;;;;;4.80;99.90;;;;;;5026332;28;19924;-66
2021/12/04 08:47:52;;;;;;;;;;;4.80;99.90;;;;;;5022865;28;20010;-65
2021/12/04 08:50:22;;;;;;;;;;;4.80;99.90;;;;;;5008458;28;19978;-66
2021/12/04 08:52:48;;;;;;;;;;;4.80;99.90;;;;;;5026575;28;20017;-66
2021/12/04 08:55:15;;;;;;;;;;;4.80;99.90;;;;;;5024367;28;19928;-66
2021/12/04 08:57:40;;;;;;;;;;;4.70;99.90;;;;;;5023202;28;19922;-67
2021/12/04 09:00:15;;;;;;;;;;;4.70;99.90;;;;;;5023860;28;19932;-66
2021/12/04 09:02:41;;;;;;;;;;;4.70;99.90;;;;;;5022281;28;19924;-67
2021/12/04 09:05:07;;;;;;;;;;;4.70;99.90;;;;;;5029637;28;19916;-67
2021/12/04 09:07:33;;;;;;;;;;;4.70;99.90;;;;;;5026227;28;20403;-67
2021/12/04 09:09:58;;;;;;;;;;;4.70;99.90;;;;;;5023731;28;19913;-67
2021/12/04 09:12:25;;;;;;;;;;;4.60;99.90;;;;;;5027632;28;20569;-66
2021/12/04 09:14:51;;;;;;;;;;;4.60;99.90;;;;;;5027146;28;19928;-65
2021/12/04 09:17:18;;;;;;;;;;;4.70;99.90;;;;;;5028435;28;19921;-66
2021/12/04 09:19:44;;;;;;;;;;;4.70;99.90;;;;;;5023975;28;19932;-66
2021/12/04 09:22:15;;;;;;;;;;;4.80;99.90;;;;;;5029223;28;19936;-66
2021/12/04 09:24:43;;;;;;;;;;;4.80;99.90;;;;;;5026395;28;20392;-66
2021/12/04 09:27:32;;;;;;;;;;;4.90;99.90;;;;;;5024031;28;19975;-65
2021/12/04 09:30:07;;;;;;;;;;;5.00;99.90;;;;;;5027025;28;19967;-65
2021/12/04 09:35:52;;;;;;;;;;;5.10;99.90;;;;;;5025341;28;19924;-67
2021/12/04 10:03:07;;;;;;;;;;;5.10;99.90;;;;;;5026374;28;19971;-67
2021/12/04 10:21:59;;;;;;;;;;;5.30;99.90;;;;;;5022630;28;20371;-70
2021/12/04 10:32:40;;;;;;;;;;;5.40;99.90;;;;;;5021193;28;19919;-68
2021/12/04 10:35:05;;;;;;;;;;;5.40;99.90;;;;;;5007427;28;20417;-67
2021/12/04 10:37:31;;;;;;;;;;;5.40;99.90;;;;;;5025009;28;20550;-68
2021/12/04 10:39:59;;;;;;;;;;;5.50;99.90;;;;;;5027014;28;20050;-68
2021/12/04 10:42:38;;;;;;;;;;;5.50;99.90;;;;;;5027439;28;19917;-67
2021/12/04 10:45:04;;;;;;;;;;;5.50;99.90;;;;;;5027371;28;19917;-67
2021/12/04 10:47:29;;;;;;;;;;;5.50;99.90;;;;;;5022556;28;19917;-68
2021/12/04 11:00:51;;;;;;;;;;;5.80;99.90;;;;;;5020361;28;19927;-67
2021/12/04 11:03:35;;;;;;;;;;;5.80;99.90;;;;;;5021518;28;20007;-66
2021/12/04 11:28:19;;;;;;;;;;;5.70;99.90;;;;;;5016338;28;19913;-66
2021/12/04 11:41:55;;;;;;;;;;;5.80;99.90;;;;;;5021270;28;19920;-67
2021/12/04 11:44:32;;;;;;;;;;;5.90;99.90;;;;;;5022350;28;19991;-67
2021/12/04 11:46:58;;;;;;;;;;;6.10;99.90;;;;;;5016092;28;19976;-67
2021/12/04 11:49:26;;;;;;;;;;;6.10;99.90;;;;;;5019508;28;20018;-67
2021/12/04 11:51:59;;;;;;;;;;;6.00;99.90;;;;;;5021354;28;20320;-67
2021/12/04 11:54:27;;;;;;;;;;;6.00;99.90;;;;;;5025581;28;19917;-67
2021/12/04 11:57:06;;;;;;;;;;;6.00;99.90;;;;;;4995446;28;20519;-66
2021/12/04 11:59:32;;;;;;;;;;;6.10;99.90;;;;;;5013402;28;19917;-67
2021/12/04 12:02:00;;;;;;;;;;;6.00;99.90;;;;;;5021428;28;19999;-66
2021/12/04 12:04:33;;;;;;;;;;;6.00;99.90;;;;;;5023516;28;19917;-66
2021/12/04 12:07:08;;;;;;;;;;;6.00;99.90;;;;;;5026319;28;20008;-66
2021/12/04 12:09:36;;;;;;;;;;;6.00;99.90;;;;;;5019476;28;20305;-67
2021/12/04 12:12:02;;;;;;;;;;;6.00;99.90;;;;;;5016011;28;19939;-67
2021/12/04 12:14:37;;;;;;;;;;;6.00;99.90;;;;;;5018259;28;20003;-66
2021/12/04 12:17:03;;;;;;;;;;;6.00;99.90;;;;;;4994036;28;20325;-65
2021/12/04 12:19:30;;;;;;;;;;;5.90;99.90;;;;;;5016269;28;19963;-65
2021/12/04 12:22:05;;;;;;;;;;;5.90;99.90;;;;;;5016361;28;19920;-65
2021/12/04 12:32:50;;;;;;;;;;;5.80;99.90;;;;;;5022802;28;20196;-67
2021/12/04 12:37:48;;;;;;;;;;;5.80;99.90;;;;;;5017309;28;19921;-66
2021/12/04 12:40:15;;;;;;;;;;;5.80;99.90;;;;;;5015105;28;19952;-69
2021/12/04 12:42:41;;;;;;;;;;;5.80;99.90;;;;;;5018226;28;19970;-66
2021/12/04 12:45:15;;;;;;;;;;;5.80;99.90;;;;;;5019307;28;19917;-68
2021/12/04 12:47:47;;;;;;;;;;;5.90;99.90;;;;;;5021396;28;20383;-68
2021/12/04 12:50:23;;;;;;;;;;;6.00;99.90;;;;;;5023624;28;19917;-67
2021/12/04 12:52:58;;;;;;;;;;;6.10;99.90;;;;;;5023436;28;19917;-66
2021/12/04 12:55:23;;;;;;;;;;;6.00;99.90;;;;;;5021835;28;19917;-66
2021/12/04 12:57:49;;;;;;;;;;;5.90;99.90;;;;;;5020576;28;19924;-67
2021/12/04 13:11:46;;;;;;;;;;;5.80;99.90;;;;;;5024259;28;19920;-67
2021/12/04 13:14:11;;;;;;;;;;;5.80;99.90;;;;;;4999177;28;19972;-66
2021/12/04 13:16:37;;;;;;;;;;;5.80;99.90;;;;;;5021781;28;20674;-65
2021/12/04 13:19:06;;;;;;;;;;;5.80;99.90;;;;;;5020476;28;19913;-66
2021/12/04 13:21:37;;;;;;;;;;;5.90;99.90;;;;;;5021356;28;19971;-66
2021/12/04 13:24:03;;;;;;;;;;;5.90;99.90;;;;;;5024673;28;19917;-66
2021/12/04 13:26:31;;;;;;;;;;;5.90;99.90;;;;;;5021027;28;20027;-66
2021/12/04 13:28:58;;;;;;;;;;;5.80;99.90;;;;;;5024484;28;19922;-66
2021/12/04 13:31:24;;;;;;;;;;;5.80;99.90;;;;;;5019477;28;19962;-66
2021/12/04 13:33:50;;;;;;;;;;;5.80;99.90;;;;;;5021884;28;20004;-67
2021/12/04 13:36:16;;;;;;;;;;;5.80;99.90;;;;;;5021746;28;19939;-66
2021/12/04 13:38:42;;;;;;;;;;;5.70;99.90;;;;;;5023640;28;19914;-66
2021/12/04 13:41:08;;;;;;;;;;;5.70;99.90;;;;;;5022721;28;20404;-67
2021/12/04 13:43:33;;;;;;;;;;;5.60;99.90;;;;;;5025190;28;19988;-66
2021/12/04 13:46:00;;;;;;;;;;;5.50;99.90;;;;;;5020338;28;20011;-67
2021/12/04 13:48:27;;;;;;;;;;;5.50;99.90;;;;;;5026031;28;19921;-67
2021/12/04 13:50:52;;;;;;;;;;;5.60;99.90;;;;;;5027015;28;20340;-66
2021/12/04 13:53:20;;;;;;;;;;;5.70;99.90;;;;;;5026449;28;19917;-68
2021/12/04 13:55:48;;;;;;;;;;;5.70;99.90;;;;;;5022476;28;19917;-67
2021/12/04 13:58:14;;;;;;;;;;;5.90;99.90;;;;;;5026625;28;19933;-69
2021/12/04 14:00:40;;;;;;;;;;;5.90;99.90;;;;;;5022777;28;19935;-67
2021/12/04 14:03:05;;;;;;;;;;;5.90;99.90;;;;;;5025743;28;19975;-66
2021/12/04 14:05:31;;;;;;;;;;;5.80;99.90;;;;;;5025652;28;19928;-67
2021/12/04 14:07:57;;;;;;;;;;;5.70;99.90;;;;;;5027269;28;19909;-67
2021/12/04 14:10:26;;;;;;;;;;;5.70;99.90;;;;;;5019975;28;20419;-67
2021/12/04 14:12:51;;;;;;;;;;;5.70;99.90;;;;;;5020009;28;20431;-68
2021/12/04 14:15:19;;;;;;;;;;;5.70;99.90;;;;;;5023665;28;19913;-67
2021/12/04 14:17:44;;;;;;;;;;;5.70;99.90;;;;;;5026792;28;19915;-67
2021/12/04 14:20:14;;;;;;;;;;;5.70;99.90;;;;;;5026531;28;19917;-65
2021/12/04 14:22:46;;;;;;;;;;;5.70;99.90;;;;;;5025887;28;19918;-65
2021/12/04 14:25:12;;;;;;;;;;;5.60;99.90;;;;;;5025002;28;19921;-66
2021/12/04 14:27:39;;;;;;;;;;;5.60;99.90;;;;;;5027313;28;19913;-67
2021/12/04 14:30:09;;;;;;;;;;;5.50;99.90;;;;;;5026875;28;20016;-67
2021/12/04 14:32:34;;;;;;;;;;;5.50;99.90;;;;;;5025483;28;19909;-67
2021/12/04 14:35:04;;;;;;;;;;;5.50;99.90;;;;;;5029063;28;20388;-67
2021/12/04 14:37:32;;;;;;;;;;;5.50;99.90;;;;;;5028312;28;20281;-67
2021/12/04 14:39:58;;;;;;;;;;;5.40;99.90;;;;;;5026309;28;19917;-66
2021/12/04 14:42:25;;;;;;;;;;;5.40;99.90;;;;;;5027616;28;19921;-65
2021/12/04 14:44:52;;;;;;;;;;;5.30;99.90;;;;;;5026463;28;19924;-65
2021/12/04 14:47:19;;;;;;;;;;;5.30;99.90;;;;;;5024584;28;20035;-65
2021/12/04 14:49:45;;;;;;;;;;;5.30;99.90;;;;;;5025170;28;19924;-65
2021/12/04 14:52:22;;;;;;;;;;;5.30;99.90;;;;;;5025719;28;19918;-65
2021/12/04 14:54:49;;;;;;;;;;;5.30;99.90;;;;;;5024582;28;19964;-65
2021/12/04 14:57:16;;;;;;;;;;;5.30;99.90;;;;;;5022735;28;19944;-65
2021/12/04 14:59:41;;;;;;;;;;;5.30;99.90;;;;;;5016523;28;19925;-65
2021/12/04 15:02:17;;;;;;;;;;;5.30;99.90;;;;;;5022546;28;19917;-65
2021/12/04 15:04:43;;;;;;;;;;;5.20;99.90;;;;;;5018638;28;20263;-65
2021/12/04 15:07:22;;;;;;;;;;;5.20;99.90;;;;;;5023870;28;19922;-65
2021/12/04 15:09:48;;;;;;;;;;;5.20;99.90;;;;;;5019109;28;19994;-65
2021/12/04 15:12:24;;;;;;;;;;;5.10;99.90;;;;;;5021706;28;20434;-65
2021/12/04 15:14:54;;;;;;;;;;;5.10;99.90;;;;;;5020972;28;19916;-65
2021/12/04 15:17:19;;;;;;;;;;;5.10;99.90;;;;;;5021983;28;19959;-65
2021/12/04 15:19:46;;;;;;;;;;;5.10;99.90;;;;;;5021153;28;19963;-65
2021/12/04 15:22:22;;;;;;;;;;;5.10;99.90;;;;;;5022608;28;19925;-65
2021/12/04 15:24:48;;;;;;;;;;;5.00;99.90;;;;;;5023821;28;19918;-65
2021/12/04 15:27:15;;;;;;;;;;;5.00;99.90;;;;;;5018372;28;19964;-65
2021/12/04 15:29:44;;;;;;;;;;;5.10;99.90;;;;;;5019384;28;19928;-65
2021/12/04 15:32:11;;;;;;;;;;;5.10;99.90;;;;;;5020847;28;19924;-65
2021/12/04 15:34:44;;;;;;;;;;;5.10;99.90;;;;;;5020006;28;20000;-65
2021/12/04 15:37:10;;;;;;;;;;;5.00;99.90;;;;;;5022962;28;19927;-66
2021/12/04 15:39:44;;;;;;;;;;;5.00;99.90;;;;;;5024178;28;19921;-65
2021/12/04 15:42:24;;;;;;;;;;;5.00;99.90;;;;;;5022563;28;20308;-66
2021/12/04 15:53:09;;;;;;;;;;;5.00;99.90;;;;;;5020059;28;19932;-65
2021/12/04 15:55:34;;;;;;;;;;;5.00;99.90;;;;;;5021773;28;20058;-65
2021/12/04 15:58:01;;;;;;;;;;;4.90;99.90;;;;;;5021653;28;20458;-66
2021/12/04 16:00:31;;;;;;;;;;;4.90;99.90;;;;;;5018233;28;20311;-67
2021/12/04 16:02:58;;;;;;;;;;;4.90;99.90;;;;;;5019758;28;19928;-67
2021/12/04 16:05:25;;;;;;;;;;;4.90;99.90;;;;;;5020989;28;19940;-67
2021/12/04 16:08:00;;;;;;;;;;;4.80;99.90;;;;;;5019270;28;20295;-67
2021/12/04 16:10:26;;;;;;;;;;;4.80;99.90;;;;;;5015865;28;19932;-67
2021/12/04 16:12:54;;;;;;;;;;;4.80;99.90;;;;;;5015869;28;19917;-67
2021/12/04 16:15:20;;;;;;;;;;;4.80;99.90;;;;;;5015622;28;19917;-66
2021/12/04 16:17:46;;;;;;;;;;;4.80;99.90;;;;;;5021414;28;19921;-66
2021/12/04 16:20:13;;;;;;;;;;;4.80;99.90;;;;;;5019012;28;20000;-67
2021/12/04 16:22:40;;;;;;;;;;;4.90;99.90;;;;;;5015282;28;20414;-67
2021/12/04 16:25:14;;;;;;;;;;;5.00;99.90;;;;;;5022708;28;19917;-66
2021/12/04 16:28:09;;;;;;;;;;;5.00;99.90;;;;;;5015725;28;19940;-67
2021/12/04 16:30:40;;;;;;;;;;;5.00;99.90;;;;;;5020305;28;19917;-66
2021/12/04 16:33:15;;;;;;;;;;;4.90;99.90;;;;;;5019917;28;19956;-67
2021/12/04 16:35:52;;;;;;;;;;;4.90;99.90;;;;;;5016402;28;19929;-67
2021/12/04 16:38:18;;;;;;;;;;;4.80;99.90;;;;;;5018732;28;20371;-67
2021/12/04 16:40:45;;;;;;;;;;;4.80;99.90;;;;;;5018403;28;19917;-66
2021/12/04 16:43:15;;;;;;;;;;;4.80;99.90;;;;;;5017768;28;19988;-65
2021/12/04 16:45:42;;;;;;;;;;;4.80;99.90;;;;;;5013301;28;20372;-65
2021/12/04 16:48:10;;;;;;;;;;;4.70;99.90;;;;;;5015864;28;19975;-65
2021/12/04 16:56:31;;;;;;;;;;;4.80;99.90;;;;;;5021155;28;20311;-66
2021/12/04 16:59:03;;;;;;;;;;;4.80;99.90;;;;;;5013348;28;19933;-66
2021/12/04 17:01:29;;;;;;;;;;;4.70;99.90;;;;;;5014785;28;19963;-66
2021/12/04 17:03:55;;;;;;;;;;;4.60;99.90;;;;;;5019765;28;19964;-66
2021/12/04 17:06:21;;;;;;;;;;;4.60;99.90;;;;;;5023124;28;20295;-66
2021/12/04 17:08:47;;;;;;;;;;;4.60;99.90;;;;;;5010700;28;20367;-66
2021/12/04 17:11:12;;;;;;;;;;;4.60;99.90;;;;;;5009292;28;20016;-66
2021/12/04 17:13:38;;;;;;;;;;;4.70;99.90;;;;;;5021369;28;20104;-66
2021/12/04 17:16:04;;;;;;;;;;;4.60;99.90;;;;;;5019653;28;19920;-66
2021/12/04 17:18:34;;;;;;;;;;;4.60;99.90;;;;;;5018450;28;19928;-66
2021/12/04 17:21:00;;;;;;;;;;;4.50;99.90;;;;;;5016587;28;19986;-67
2021/12/04 17:23:25;;;;;;;;;;;4.50;99.90;;;;;;5027653;28;19929;-67
2021/12/04 17:25:52;;;;;;;;;;;4.40;99.90;;;;;;5028116;28;20120;-66
2021/12/04 17:28:18;;;;;;;;;;;4.40;99.90;;;;;;5019039;28;19917;-65
2021/12/04 17:30:46;;;;;;;;;;;4.40;99.90;;;;;;5023270;28;19917;-67
2021/12/04 17:33:11;;;;;;;;;;;4.40;99.90;;;;;;5024955;28;20280;-68
2021/12/04 17:35:37;;;;;;;;;;;4.30;99.90;;;;;;5024066;28;19917;-65
2021/12/04 17:38:04;;;;;;;;;;;4.20;99.90;;;;;;5016802;28;19936;-66
2021/12/04 17:40:29;;;;;;;;;;;4.20;99.90;;;;;;5024623;28;19918;-65
2021/12/04 17:42:55;;;;;;;;;;;4.20;99.90;;;;;;5022416;28;19913;-65
2021/12/04 17:45:20;;;;;;;;;;;4.20;99.90;;;;;;5020488;28;20027;-65
2021/12/04 17:47:49;;;;;;;;;;;4.20;99.90;;;;;;5025409;28;19928;-67
2021/12/04 17:50:17;;;;;;;;;;;4.20;99.90;;;;;;5024067;28;19920;-66
2021/12/04 17:52:42;;;;;;;;;;;4.20;99.90;;;;;;5022042;28;20277;-66